sensor_id;sensor_type;location;lat;lon;timestamp;P1;durP1;ratioP1;P2;durP2;ratioP2
31978;SDS011;18502;43.574;1.276;2023-04-08T00:01:08;3.58;;;2.40;;
31978;SDS011;18502;43.574;1.276;2023-04-08T00:03:34;3.42;;;2.10;;
31978;SDS011;18502;43.574;1.276;2023-04-08T00:06:00;4.15;;;2.30;;
31978;SDS011;18502;43.574;1.276;2023-04-08T00:08:27;6.38;;;2.40;;
31978;SDS011;18502;43.574;1.276;2023-04-08T00:10:52;4.35;;;2.50;;
31978;SDS011;18502;43.574;1.276;2023-04-08T00:13:18;3.85;;;2.20;;
31978;SDS011;18502;43.574;1.276;2023-04-08T00:15:44;5.40;;;2.50;;
31978;SDS011;18502;43.574;1.276;2023-04-08T00:18:09;4.90;;;2.60;;
31978;SDS011;18502;43.574;1.276;2023-04-08T00:20:35;3.92;;;2.50;;
31978;SDS011;18502;43.574;1.276;2023-04-08T00:23:01;7.78;;;2.35;;
31978;SDS011;18502;43.574;1.276;2023-04-08T00:25:27;6.13;;;2.47;;
31978;SDS011;18502;43.574;1.276;2023-04-08T00:27:52;5.45;;;2.80;;
31978;SDS011;18502;43.574;1.276;2023-04-08T00:30:18;6.57;;;2.80;;
31978;SDS011;18502;43.574;1.276;2023-04-08T00:32:44;7.45;;;2.80;;
31978;SDS011;18502;43.574;1.276;2023-04-08T00:35:09;9.63;;;3.10;;
31978;SDS011;18502;43.574;1.276;2023-04-08T00:37:37;7.22;;;3.22;;
31978;SDS011;18502;43.574;1.276;2023-04-08T00:40:02;3.40;;;2.25;;
31978;SDS011;18502;43.574;1.276;2023-04-08T00:42:29;4.80;;;2.60;;
31978;SDS011;18502;43.574;1.276;2023-04-08T00:44:55;5.18;;;2.70;;
31978;SDS011;18502;43.574;1.276;2023-04-08T00:47:21;3.55;;;2.67;;
31978;SDS011;18502;43.574;1.276;2023-04-08T00:49:46;4.20;;;2.63;;
31978;SDS011;18502;43.574;1.276;2023-04-08T00:52:12;3.55;;;2.25;;
31978;SDS011;18502;43.574;1.276;2023-04-08T00:54:38;3.95;;;2.63;;
31978;SDS011;18502;43.574;1.276;2023-04-08T00:57:04;4.20;;;3.20;;
31978;SDS011;18502;43.574;1.276;2023-04-08T00:59:30;4.55;;;3.15;;
31978;SDS011;18502;43.574;1.276;2023-04-08T01:07:19;7.72;;;4.35;;
31978;SDS011;18502;43.574;1.276;2023-04-08T01:09:51;8.07;;;4.30;;
31978;SDS011;18502;43.574;1.276;2023-04-08T01:14:46;13.05;;;4.80;;
31978;SDS011;18502;43.574;1.276;2023-04-08T01:17:16;9.05;;;5.32;;
31978;SDS011;18502;43.574;1.276;2023-04-08T01:19:44;9.15;;;4.72;;
31978;SDS011;18502;43.574;1.276;2023-04-08T01:23:01;6.50;;;3.97;;
31978;SDS011;18502;43.574;1.276;2023-04-08T01:25:15;6.55;;;3.88;;
31978;SDS011;18502;43.574;1.276;2023-04-08T01:27:45;8.77;;;3.92;;
31978;SDS011;18502;43.574;1.276;2023-04-08T01:30:13;7.45;;;3.78;;
31978;SDS011;18502;43.574;1.276;2023-04-08T01:32:41;8.73;;;4.05;;
31978;SDS011;18502;43.574;1.276;2023-04-08T01:35:09;8.82;;;4.00;;
31978;SDS011;18502;43.574;1.276;2023-04-08T01:37:36;6.07;;;3.13;;
31978;SDS011;18502;43.574;1.276;2023-04-08T01:40:03;6.20;;;3.60;;
31978;SDS011;18502;43.574;1.276;2023-04-08T01:42:31;9.65;;;3.80;;
31978;SDS011;18502;43.574;1.276;2023-04-08T01:44:58;7.97;;;4.00;;
31978;SDS011;18502;43.574;1.276;2023-04-08T01:47:25;5.78;;;3.15;;
31978;SDS011;18502;43.574;1.276;2023-04-08T01:49:52;4.93;;;3.42;;
31978;SDS011;18502;43.574;1.276;2023-04-08T01:52:19;7.63;;;3.60;;
31978;SDS011;18502;43.574;1.276;2023-04-08T01:54:46;5.28;;;3.35;;
31978;SDS011;18502;43.574;1.276;2023-04-08T01:57:19;6.55;;;3.45;;
31978;SDS011;18502;43.574;1.276;2023-04-08T01:59:49;4.30;;;3.03;;
31978;SDS011;18502;43.574;1.276;2023-04-08T02:02:19;6.68;;;3.08;;
31978;SDS011;18502;43.574;1.276;2023-04-08T02:04:46;6.10;;;3.10;;
31978;SDS011;18502;43.574;1.276;2023-04-08T02:07:12;7.32;;;3.75;;
31978;SDS011;18502;43.574;1.276;2023-04-08T02:09:38;9.50;;;3.97;;
31978;SDS011;18502;43.574;1.276;2023-04-08T02:12:04;6.63;;;3.75;;
31978;SDS011;18502;43.574;1.276;2023-04-08T02:14:30;31.63;;;4.55;;
31978;SDS011;18502;43.574;1.276;2023-04-08T02:19:54;5.88;;;4.10;;
31978;SDS011;18502;43.574;1.276;2023-04-08T02:25:19;6.75;;;3.58;;
31978;SDS011;18502;43.574;1.276;2023-04-08T02:27:47;5.70;;;3.42;;
31978;SDS011;18502;43.574;1.276;2023-04-08T02:30:14;4.60;;;3.03;;
31978;SDS011;18502;43.574;1.276;2023-04-08T02:32:41;6.18;;;3.85;;
31978;SDS011;18502;43.574;1.276;2023-04-08T02:35:08;7.75;;;3.92;;
31978;SDS011;18502;43.574;1.276;2023-04-08T02:37:36;6.22;;;3.55;;
31978;SDS011;18502;43.574;1.276;2023-04-08T02:40:01;6.15;;;4.07;;
31978;SDS011;18502;43.574;1.276;2023-04-08T02:42:27;5.85;;;4.25;;
31978;SDS011;18502;43.574;1.276;2023-04-08T02:44:53;6.95;;;3.97;;
31978;SDS011;18502;43.574;1.276;2023-04-08T02:47:19;10.10;;;4.13;;
31978;SDS011;18502;43.574;1.276;2023-04-08T02:49:44;5.90;;;3.40;;
31978;SDS011;18502;43.574;1.276;2023-04-08T02:52:10;7.07;;;3.90;;
31978;SDS011;18502;43.574;1.276;2023-04-08T02:54:36;8.00;;;3.97;;
31978;SDS011;18502;43.574;1.276;2023-04-08T02:57:01;7.07;;;3.70;;
31978;SDS011;18502;43.574;1.276;2023-04-08T02:59:27;7.90;;;3.42;;
31978;SDS011;18502;43.574;1.276;2023-04-08T03:01:52;5.28;;;3.65;;
31978;SDS011;18502;43.574;1.276;2023-04-08T03:04:18;7.90;;;3.85;;
31978;SDS011;18502;43.574;1.276;2023-04-08T03:06:44;6.68;;;3.63;;
31978;SDS011;18502;43.574;1.276;2023-04-08T03:09:09;5.78;;;3.92;;
31978;SDS011;18502;43.574;1.276;2023-04-08T03:11:35;6.22;;;3.35;;
31978;SDS011;18502;43.574;1.276;2023-04-08T03:14:01;5.18;;;3.33;;
31978;SDS011;18502;43.574;1.276;2023-04-08T03:16:26;7.28;;;4.25;;
31978;SDS011;18502;43.574;1.276;2023-04-08T03:18:52;5.25;;;3.38;;
31978;SDS011;18502;43.574;1.276;2023-04-08T03:21:18;6.85;;;3.78;;
31978;SDS011;18502;43.574;1.276;2023-04-08T03:23:43;6.00;;;3.75;;
31978;SDS011;18502;43.574;1.276;2023-04-08T03:26:09;6.10;;;3.70;;
31978;SDS011;18502;43.574;1.276;2023-04-08T03:28:35;5.97;;;3.70;;
31978;SDS011;18502;43.574;1.276;2023-04-08T03:31:02;8.02;;;3.67;;
31978;SDS011;18502;43.574;1.276;2023-04-08T03:33:28;6.57;;;3.05;;
31978;SDS011;18502;43.574;1.276;2023-04-08T03:35:54;8.10;;;4.15;;
31978;SDS011;18502;43.574;1.276;2023-04-08T03:38:20;7.60;;;3.30;;
31978;SDS011;18502;43.574;1.276;2023-04-08T03:40:45;4.68;;;3.47;;
31978;SDS011;18502;43.574;1.276;2023-04-08T03:43:12;6.88;;;3.78;;
31978;SDS011;18502;43.574;1.276;2023-04-08T03:45:37;5.65;;;3.83;;
31978;SDS011;18502;43.574;1.276;2023-04-08T03:48:03;6.80;;;3.92;;
31978;SDS011;18502;43.574;1.276;2023-04-08T03:50:29;4.63;;;3.35;;
31978;SDS011;18502;43.574;1.276;2023-04-08T03:52:55;5.40;;;3.75;;
31978;SDS011;18502;43.574;1.276;2023-04-08T03:55:20;6.43;;;3.80;;
31978;SDS011;18502;43.574;1.276;2023-04-08T03:57:46;8.65;;;3.60;;
31978;SDS011;18502;43.574;1.276;2023-04-08T04:00:12;5.95;;;4.03;;
31978;SDS011;18502;43.574;1.276;2023-04-08T04:02:38;4.97;;;3.63;;
31978;SDS011;18502;43.574;1.276;2023-04-08T04:05:04;6.68;;;4.45;;
31978;SDS011;18502;43.574;1.276;2023-04-08T04:07:30;5.55;;;3.85;;
31978;SDS011;18502;43.574;1.276;2023-04-08T04:09:55;5.80;;;3.78;;
31978;SDS011;18502;43.574;1.276;2023-04-08T04:12:21;7.05;;;3.72;;
31978;SDS011;18502;43.574;1.276;2023-04-08T04:14:47;5.30;;;3.60;;
31978;SDS011;18502;43.574;1.276;2023-04-08T04:17:13;5.97;;;4.00;;
31978;SDS011;18502;43.574;1.276;2023-04-08T04:19:39;5.68;;;3.83;;
31978;SDS011;18502;43.574;1.276;2023-04-08T04:22:05;7.32;;;3.80;;
31978;SDS011;18502;43.574;1.276;2023-04-08T04:24:30;5.60;;;3.35;;
31978;SDS011;18502;43.574;1.276;2023-04-08T04:26:56;6.38;;;3.65;;
31978;SDS011;18502;43.574;1.276;2023-04-08T04:29:22;5.97;;;3.45;;
31978;SDS011;18502;43.574;1.276;2023-04-08T04:31:47;7.68;;;3.72;;
31978;SDS011;18502;43.574;1.276;2023-04-08T04:34:13;7.68;;;4.25;;
31978;SDS011;18502;43.574;1.276;2023-04-08T04:36:39;5.65;;;4.20;;
31978;SDS011;18502;43.574;1.276;2023-04-08T04:39:04;6.65;;;4.47;;
31978;SDS011;18502;43.574;1.276;2023-04-08T04:41:30;5.63;;;3.80;;
31978;SDS011;18502;43.574;1.276;2023-04-08T04:43:56;7.57;;;4.43;;
31978;SDS011;18502;43.574;1.276;2023-04-08T04:46:21;6.15;;;4.22;;
31978;SDS011;18502;43.574;1.276;2023-04-08T04:48:47;7.03;;;4.30;;
31978;SDS011;18502;43.574;1.276;2023-04-08T04:51:13;6.07;;;4.18;;
31978;SDS011;18502;43.574;1.276;2023-04-08T04:53:38;8.27;;;4.38;;
31978;SDS011;18502;43.574;1.276;2023-04-08T04:56:04;10.63;;;5.35;;
31978;SDS011;18502;43.574;1.276;2023-04-08T04:58:30;6.63;;;4.53;;
31978;SDS011;18502;43.574;1.276;2023-04-08T05:00:56;8.38;;;5.25;;
31978;SDS011;18502;43.574;1.276;2023-04-08T05:03:22;8.90;;;4.43;;
31978;SDS011;18502;43.574;1.276;2023-04-08T05:05:51;6.85;;;4.55;;
31978;SDS011;18502;43.574;1.276;2023-04-08T05:08:18;7.22;;;4.10;;
31978;SDS011;18502;43.574;1.276;2023-04-08T05:10:43;8.20;;;4.65;;
31978;SDS011;18502;43.574;1.276;2023-04-08T05:13:09;8.30;;;4.82;;
31978;SDS011;18502;43.574;1.276;2023-04-08T05:15:35;8.55;;;4.43;;
31978;SDS011;18502;43.574;1.276;2023-04-08T05:18:01;6.88;;;4.72;;
31978;SDS011;18502;43.574;1.276;2023-04-08T05:20:26;8.73;;;5.07;;
31978;SDS011;18502;43.574;1.276;2023-04-08T05:22:52;11.65;;;4.65;;
31978;SDS011;18502;43.574;1.276;2023-04-08T05:25:18;8.35;;;4.65;;
31978;SDS011;18502;43.574;1.276;2023-04-08T05:27:44;5.85;;;4.40;;
31978;SDS011;18502;43.574;1.276;2023-04-08T05:30:10;6.18;;;4.00;;
31978;SDS011;18502;43.574;1.276;2023-04-08T05:32:36;7.05;;;4.18;;
31978;SDS011;18502;43.574;1.276;2023-04-08T05:35:02;9.15;;;3.90;;
31978;SDS011;18502;43.574;1.276;2023-04-08T05:37:28;5.78;;;4.30;;
31978;SDS011;18502;43.574;1.276;2023-04-08T05:39:54;5.70;;;3.83;;
31978;SDS011;18502;43.574;1.276;2023-04-08T05:42:20;7.00;;;4.13;;
31978;SDS011;18502;43.574;1.276;2023-04-08T05:44:46;9.95;;;3.95;;
31978;SDS011;18502;43.574;1.276;2023-04-08T05:47:11;11.90;;;4.30;;
31978;SDS011;18502;43.574;1.276;2023-04-08T05:49:38;6.72;;;4.80;;
31978;SDS011;18502;43.574;1.276;2023-04-08T05:52:04;10.05;;;4.80;;
31978;SDS011;18502;43.574;1.276;2023-04-08T05:54:31;12.02;;;5.00;;
31978;SDS011;18502;43.574;1.276;2023-04-08T05:56:56;10.30;;;4.90;;
31978;SDS011;18502;43.574;1.276;2023-04-08T05:59:22;8.38;;;4.97;;
31978;SDS011;18502;43.574;1.276;2023-04-08T06:01:48;10.30;;;5.18;;
31978;SDS011;18502;43.574;1.276;2023-04-08T06:04:13;8.95;;;5.20;;
31978;SDS011;18502;43.574;1.276;2023-04-08T06:06:41;8.60;;;4.85;;
31978;SDS011;18502;43.574;1.276;2023-04-08T06:09:07;8.15;;;4.85;;
31978;SDS011;18502;43.574;1.276;2023-04-08T06:11:34;10.20;;;5.10;;
31978;SDS011;18502;43.574;1.276;2023-04-08T06:13:59;9.75;;;5.45;;
31978;SDS011;18502;43.574;1.276;2023-04-08T06:16:25;8.68;;;4.85;;
31978;SDS011;18502;43.574;1.276;2023-04-08T06:18:51;10.25;;;4.78;;
31978;SDS011;18502;43.574;1.276;2023-04-08T06:21:16;10.98;;;5.90;;
31978;SDS011;18502;43.574;1.276;2023-04-08T06:23:42;8.48;;;5.50;;
31978;SDS011;18502;43.574;1.276;2023-04-08T06:26:08;11.88;;;5.40;;
31978;SDS011;18502;43.574;1.276;2023-04-08T06:28:33;13.90;;;5.78;;
31978;SDS011;18502;43.574;1.276;2023-04-08T06:30:59;10.45;;;5.40;;
31978;SDS011;18502;43.574;1.276;2023-04-08T06:33:25;9.82;;;5.13;;
31978;SDS011;18502;43.574;1.276;2023-04-08T06:35:51;7.85;;;4.95;;
31978;SDS011;18502;43.574;1.276;2023-04-08T06:38:25;12.80;;;5.63;;
31978;SDS011;18502;43.574;1.276;2023-04-08T06:40:50;14.07;;;6.50;;
31978;SDS011;18502;43.574;1.276;2023-04-08T06:43:16;13.40;;;5.03;;
31978;SDS011;18502;43.574;1.276;2023-04-08T06:45:41;8.85;;;4.72;;
31978;SDS011;18502;43.574;1.276;2023-04-08T06:48:07;9.95;;;5.50;;
31978;SDS011;18502;43.574;1.276;2023-04-08T06:50:33;9.40;;;5.65;;
31978;SDS011;18502;43.574;1.276;2023-04-08T06:52:59;8.50;;;4.75;;
31978;SDS011;18502;43.574;1.276;2023-04-08T06:55:24;9.38;;;5.20;;
31978;SDS011;18502;43.574;1.276;2023-04-08T06:57:51;7.13;;;4.85;;
31978;SDS011;18502;43.574;1.276;2023-04-08T07:00:16;7.05;;;4.53;;
31978;SDS011;18502;43.574;1.276;2023-04-08T07:02:42;7.05;;;4.65;;
31978;SDS011;18502;43.574;1.276;2023-04-08T07:05:09;10.27;;;4.90;;
31978;SDS011;18502;43.574;1.276;2023-04-08T07:07:35;12.98;;;4.63;;
31978;SDS011;18502;43.574;1.276;2023-04-08T07:10:01;8.50;;;3.97;;
31978;SDS011;18502;43.574;1.276;2023-04-08T07:12:27;6.95;;;4.25;;
31978;SDS011;18502;43.574;1.276;2023-04-08T07:14:52;9.98;;;4.30;;
31978;SDS011;18502;43.574;1.276;2023-04-08T07:17:18;6.90;;;3.95;;
31978;SDS011;18502;43.574;1.276;2023-04-08T07:19:44;9.07;;;4.05;;
31978;SDS011;18502;43.574;1.276;2023-04-08T07:22:10;6.22;;;3.88;;
31978;SDS011;18502;43.574;1.276;2023-04-08T07:24:35;7.05;;;3.67;;
31978;SDS011;18502;43.574;1.276;2023-04-08T07:27:01;6.97;;;3.90;;
31978;SDS011;18502;43.574;1.276;2023-04-08T07:29:27;9.85;;;3.85;;
31978;SDS011;18502;43.574;1.276;2023-04-08T07:31:52;6.72;;;3.72;;
31978;SDS011;18502;43.574;1.276;2023-04-08T07:34:18;7.47;;;3.97;;
31978;SDS011;18502;43.574;1.276;2023-04-08T07:36:44;7.82;;;3.75;;
31978;SDS011;18502;43.574;1.276;2023-04-08T07:39:09;7.50;;;3.53;;
31978;SDS011;18502;43.574;1.276;2023-04-08T07:41:35;7.00;;;3.58;;
31978;SDS011;18502;43.574;1.276;2023-04-08T07:44:01;10.80;;;3.47;;
31978;SDS011;18502;43.574;1.276;2023-04-08T07:46:26;8.15;;;3.10;;
31978;SDS011;18502;43.574;1.276;2023-04-08T07:48:52;4.97;;;2.97;;
31978;SDS011;18502;43.574;1.276;2023-04-08T07:51:18;6.35;;;3.45;;
